Rio Teslin — A8JS6 — position and weather

sailwx.info

Track history (hours):
 
Tides and Currents Weather Stations Pressure Air Temp Water Temp Dewpoint Dewpoint Depression Visibility Wind Speed Wind Dir Waves Ship Positions

Rio Teslin

Last reported at 2017-Nov-18 09:24 UTC. Time now 2017-Nov-22 18:12 UTC.
Position N 40°04' W 028°25'.

Length 210 m; draft 9.3 m.

Type: Cargo ship. MMSI: 636091130.

Date/timePositionNaut miles runAvg speedWind from/ knotsBaromVisibWave heightAir tempDewpointWater temp
2017-Nov-18 09:24N 40°04' W 028°25'616.0
2017-Nov-18 09:00N 40°01' W 028°32'816.2
2017-Nov-18 08:30N 39°56' W 028°41'816.4
2017-Nov-18 08:00N 39°52' W 028°50'816.3
2017-Nov-18 07:30N 39°48' W 028°59'816.3
2017-Nov-18 07:00N 39°43' W 029°08'816.3
2017-Nov-18 06:30N 39°39' W 029°17'816.3
2017-Nov-18 06:00N 39°35' W 029°26'816.1
2017-Nov-18 05:30N 39°31' W 029°35'816.1
2017-Nov-18 05:00N 39°26' W 029°44'816.2
2017-Nov-18 04:30N 39°22' W 029°53'816.2
2017-Nov-18 04:00N 39°18' W 030°02'816.0
2017-Nov-18 03:31N 39°14' W 030°11'816.0
2017-Nov-18 03:00N 39°10' W 030°19'816.2
2017-Nov-18 02:30N 39°05' W 030°28'816.2
2017-Nov-18 02:01N 39°01' W 030°37'916.5
2017-Nov-18 01:29N 38°57' W 030°47'816.6
2017-Nov-18 01:00N 38°53' W 030°55'916.1
2017-Nov-18 00:28N 38°48' W 031°05'1316.5
2017-Nov-17 23:41N 38°41' W 031°19'  
2017-Nov-10 12:39N 11°13' W 074°33'215.4
2017-Nov-10 12:30N 11°13' W 074°35'1215.5
2017-Nov-10 11:43N 11°12' W 074°47'  
Track history (hours):
 
Tides and Currents Weather Stations Pressure Air Temp Water Temp Dewpoint Dewpoint Depression Visibility Wind Speed Wind Dir Waves Ship Positions

Rio Teslin

Last reported at 2017-Nov-18 09:24 UTC. Time now 2017-Nov-22 18:12 UTC.
Position N 40°04' W 028°25'.

Length 210 m; draft 9.3 m.

Type: Cargo ship. MMSI: 636091130.

Date/timePositionNaut miles runAvg speedWind from/ knotsBaromVisibWave heightAir tempDewpointWater temp
2017-Nov-18 09:24N 40°04' W 028°25'616.0
2017-Nov-18 09:00N 40°01' W 028°32'816.2
2017-Nov-18 08:30N 39°56' W 028°41'816.4
2017-Nov-18 08:00N 39°52' W 028°50'816.3
2017-Nov-18 07:30N 39°48' W 028°59'816.3
2017-Nov-18 07:00N 39°43' W 029°08'816.3
2017-Nov-18 06:30N 39°39' W 029°17'816.3
2017-Nov-18 06:00N 39°35' W 029°26'816.1
2017-Nov-18 05:30N 39°31' W 029°35'816.1
2017-Nov-18 05:00N 39°26' W 029°44'816.2
2017-Nov-18 04:30N 39°22' W 029°53'816.2
2017-Nov-18 04:00N 39°18' W 030°02'816.0
2017-Nov-18 03:31N 39°14' W 030°11'816.0
2017-Nov-18 03:00N 39°10' W 030°19'816.2
2017-Nov-18 02:30N 39°05' W 030°28'816.2
2017-Nov-18 02:01N 39°01' W 030°37'916.5
2017-Nov-18 01:29N 38°57' W 030°47'816.6
2017-Nov-18 01:00N 38°53' W 030°55'916.1
2017-Nov-18 00:28N 38°48' W 031°05'1316.5
2017-Nov-17 23:41N 38°41' W 031°19'  
2017-Nov-10 12:39N 11°13' W 074°33'215.4
2017-Nov-10 12:30N 11°13' W 074°35'1215.5
2017-Nov-10 11:43N 11°12' W 074°47'  

Dump ship's entire track history